Time;durP1;ratioP1;P1;durP2;ratioP2;P2;SDS_P1;SDS_P2;PMS_P1;PMS_P2;Temp;Humidity;BMP_temperature;BMP_pressure;BME280_temperature;BME280_humidity;BME280_pressure;Samples;Min_cycle;Max_cycle;Signal;HPM_P1;HPM_P2
2022/09/28 00:01:50;;;;;;;3.85;2.13;;;7.50;99.90;;;;;;5082870;28;20044;-79
2022/09/28 00:04:16;;;;;;;3.53;2.10;;;7.50;99.90;;;;;;5080284;28;20040;-78
2022/09/28 00:06:42;;;;;;;3.15;1.80;;;7.40;99.90;;;;;;5080481;28;20032;-79
2022/09/28 00:09:08;;;;;;;3.20;1.92;;;7.40;99.90;;;;;;5073839;28;20037;-79
2022/09/28 00:11:34;;;;;;;2.50;1.52;;;7.40;99.90;;;;;;5080106;28;20036;-78
2022/09/28 00:14:02;;;;;;;4.80;2.00;;;7.50;99.90;;;;;;5088980;28;20080;-78
2022/09/28 00:16:37;;;;;;;3.83;2.17;;;7.30;99.90;;;;;;5088178;28;20105;-78
2022/09/28 00:19:03;;;;;;;3.33;1.98;;;7.30;99.90;;;;;;5059334;28;20044;-78
2022/09/28 00:21:31;;;;;;;2.70;1.80;;;7.30;99.90;;;;;;5075111;28;20084;-80
2022/09/28 00:24:11;;;;;;;4.75;2.35;;;8.20;99.90;;;;;;5087853;28;20054;-79
2022/09/28 00:26:49;;;;;;;3.92;2.13;;;7.30;99.90;;;;;;5073404;28;20044;-79
2022/09/28 00:29:17;;;;;;;3.20;1.90;;;7.30;99.90;;;;;;5074642;28;20043;-79
2022/09/28 00:31:43;;;;;;;3.47;2.20;;;7.20;99.90;;;;;;5071478;28;20040;-79
2022/09/28 00:34:09;;;;;;;3.63;2.15;;;7.30;99.90;;;;;;5058644;28;20047;-79
2022/09/28 00:36:34;;;;;;;2.58;1.85;;;7.20;99.90;;;;;;5063295;28;20389;-79
2022/09/28 00:39:06;;;;;;;3.72;1.80;;;7.20;99.90;;;;;;5072531;28;20047;-80
2022/09/28 00:41:32;;;;;;;3.25;1.92;;;7.30;99.90;;;;;;5073171;28;20044;-79
2022/09/28 00:44:23;;;;;;;4.00;1.75;;;7.10;99.90;;;;;;5088285;28;20490;-79
2022/09/28 00:47:00;;;;;;;3.28;2.05;;;7.10;99.90;;;;;;5074297;28;20390;-79
2022/09/28 00:49:48;;;;;;;4.38;2.08;;;7.30;99.90;;;;;;5082869;28;20107;-79
2022/09/28 00:52:20;;;;;;;3.50;1.92;;;7.00;99.90;;;;;;5041648;28;20040;-79
2022/09/28 00:54:48;;;;;;;3.80;2.20;;;7.00;99.90;;;;;;5091215;28;20508;-79
2022/09/28 00:57:14;;;;;;;3.25;2.03;;;7.00;99.90;;;;;;5089354;28;20043;-79
2022/09/28 00:59:41;;;;;;;3.85;2.22;;;7.30;99.90;;;;;;5092932;28;20403;-79
2022/09/28 01:02:09;;;;;;;3.90;2.22;;;7.10;99.90;;;;;;5084957;28;20036;-79
2022/09/28 01:04:36;;;;;;;3.10;1.90;;;7.10;99.90;;;;;;5088200;28;20071;-79
2022/09/28 01:07:02;;;;;;;3.20;1.90;;;7.00;99.90;;;;;;5043413;28;20483;-79
2022/09/28 01:09:29;;;;;;;4.50;3.05;;;7.00;99.90;;;;;;5057727;28;20032;-79
2022/09/28 01:11:54;;;;;;;4.70;2.38;;;7.10;99.90;;;;;;5069184;28;20036;-79
2022/09/28 01:14:24;;;;;;;4.47;2.75;;;7.10;99.90;;;;;;5081083;28;20079;-79
2022/09/28 01:17:20;;;;;;;4.93;2.85;;;7.10;99.90;;;;;;5083786;28;20094;-79
2022/09/28 01:20:12;;;;;;;4.88;2.33;;;7.10;99.90;;;;;;5077325;28;20052;-79
2022/09/28 01:22:50;;;;;;;4.68;2.40;;;7.20;99.90;;;;;;5072330;28;20066;-79
2022/09/28 01:25:37;;;;;;;5.70;3.25;;;7.20;99.90;;;;;;5073701;28;20082;-79
2022/09/28 01:28:11;;;;;;;6.13;3.08;;;7.20;99.90;;;;;;5075801;28;20043;-79
2022/09/28 01:30:58;;;;;;;6.68;3.63;;;7.40;99.90;;;;;;5073617;28;20040;-79
2022/09/28 01:33:30;;;;;;;4.45;2.38;;;7.40;99.90;;;;;;5074628;28;20052;-79
2022/09/28 01:36:05;;;;;;;4.72;2.70;;;7.40;99.90;;;;;;5069725;28;20083;-79
2022/09/28 01:38:45;;;;;;;4.20;2.50;;;7.40;99.90;;;;;;5055070;28;20044;-79
2022/09/28 01:41:12;;;;;;;4.07;2.35;;;7.40;99.90;;;;;;5088925;28;20048;-79
2022/09/28 01:43:41;;;;;;;4.80;2.67;;;7.50;99.90;;;;;;5082330;28;20102;-78
2022/09/28 01:46:11;;;;;;;4.82;2.42;;;7.40;99.90;;;;;;5059088;28;20039;-78
2022/09/28 01:48:52;;;;;;;5.03;2.63;;;7.50;99.90;;;;;;5083421;28;20071;-78
2022/09/28 01:51:46;;;;;;;5.57;2.80;;;7.50;99.90;;;;;;5083420;28;20028;-78
2022/09/28 01:54:18;;;;;;;4.07;2.58;;;7.50;99.90;;;;;;5090115;28;20101;-78
2022/09/28 01:56:53;;;;;;;5.20;2.80;;;7.50;99.90;;;;;;5091092;28;20032;-78
2022/09/28 01:59:27;;;;;;;4.78;2.50;;;7.50;99.90;;;;;;5076387;28;20045;-78
2022/09/28 02:02:11;;;;;;;4.32;2.45;;;7.50;99.90;;;;;;5082516;28;20090;-79
2022/09/28 02:04:48;;;;;;;5.82;3.50;;;7.50;99.90;;;;;;5077618;28;20032;-79
2022/09/28 02:07:56;;;;;;;5.03;2.92;;;7.50;99.90;;;;;;5074581;28;20039;-79
2022/09/28 02:10:28;;;;;;;5.43;2.92;;;7.50;99.90;;;;;;5057240;28;20074;-79
2022/09/28 02:13:00;;;;;;;4.70;2.75;;;7.60;99.90;;;;;;5072124;28;20382;-79
2022/09/28 02:15:34;;;;;;;5.03;2.83;;;7.60;99.90;;;;;;5072838;28;20076;-79
2022/09/28 02:17:59;;;;;;;3.85;2.38;;;7.60;99.90;;;;;;5081774;28;20067;-78
2022/09/28 02:20:26;;;;;;;3.95;2.30;;;7.60;99.90;;;;;;5061981;28;20524;-78
2022/09/28 02:22:58;;;;;;;3.90;2.00;;;7.60;99.90;;;;;;5063728;28;20051;-78
2022/09/28 02:25:44;;;;;;;4.93;2.88;;;7.60;99.90;;;;;;5079529;28;20485;-78
2022/09/28 02:28:12;;;;;;;5.18;2.38;;;7.60;99.90;;;;;;5090208;28;20523;-78
2022/09/28 02:30:40;;;;;;;5.30;3.08;;;7.60;99.90;;;;;;5063531;28;20386;-78
2022/09/28 02:33:30;;;;;;;4.55;2.40;;;7.60;99.90;;;;;;5083583;28;20048;-78
2022/09/28 02:35:58;;;;;;;5.75;3.20;;;7.60;99.90;;;;;;5089568;28;20040;-78
2022/09/28 02:38:24;;;;;;;5.18;2.85;;;7.60;99.90;;;;;;5091182;28;20079;-78
2022/09/28 02:41:22;;;;;;;6.45;3.30;;;7.60;99.90;;;;;;5059668;28;20071;-78
2022/09/28 02:44:15;;;;;;;3.83;2.40;;;7.60;99.90;;;;;;5050409;28;20397;-78
2022/09/28 02:47:02;;;;;;;5.35;2.53;;;7.60;99.90;;;;;;5065072;28;20035;-78
2022/09/28 02:49:54;;;;;;;4.03;2.20;;;7.50;99.90;;;;;;5081784;28;20043;-78
2022/09/28 02:52:55;;;;;;;5.07;2.40;;;7.50;99.90;;;;;;5076006;28;20080;-78
2022/09/28 02:55:52;;;;;;;8.07;2.55;;;7.50;99.90;;;;;;5094357;28;20036;-78
2022/09/28 02:58:31;;;;;;;5.32;2.70;;;7.50;99.90;;;;;;5094675;28;20042;-78
2022/09/28 03:01:08;;;;;;;5.70;2.60;;;7.50;99.90;;;;;;5093298;28;20039;-78
2022/09/28 03:03:48;;;;;;;4.10;2.33;;;7.50;99.90;;;;;;5068317;28;20040;-78
2022/09/28 03:06:22;;;;;;;4.82;2.53;;;7.40;99.90;;;;;;5095318;28;20040;-78
2022/09/28 03:09:03;;;;;;;4.10;2.45;;;7.30;99.90;;;;;;5087094;28;20077;-79
2022/09/28 03:11:57;;;;;;;4.70;3.17;;;7.30;99.90;;;;;;5074589;28;20032;-79
2022/09/28 03:14:23;;;;;;;6.38;2.30;;;7.20;99.90;;;;;;5062645;28;20119;-79
2022/09/28 03:16:49;;;;;;;3.85;2.20;;;7.20;99.90;;;;;;5078777;28;20052;-79
2022/09/28 03:19:21;;;;;;;3.90;2.17;;;7.20;99.90;;;;;;5078530;28;20051;-79
2022/09/28 03:21:48;;;;;;;4.40;2.60;;;7.30;99.90;;;;;;5077816;28;20563;-79
2022/09/28 03:24:13;;;;;;;5.88;2.67;;;7.10;99.90;;;;;;5051013;28;20148;-79
2022/09/28 03:26:39;;;;;;;3.50;2.03;;;7.20;99.90;;;;;;5076742;28;20124;-79
2022/09/28 03:29:05;;;;;;;4.45;2.25;;;7.20;99.90;;;;;;5090331;28;20036;-79
2022/09/28 03:31:31;;;;;;;4.07;2.38;;;7.30;99.90;;;;;;5073286;28;20032;-79
2022/09/28 03:33:57;;;;;;;3.85;2.40;;;7.30;99.90;;;;;;5086191;28;20041;-79
2022/09/28 03:36:23;;;;;;;5.55;2.80;;;7.30;99.90;;;;;;5091529;28;20448;-79
2022/09/28 03:38:52;;;;;;;3.97;2.10;;;7.40;99.90;;;;;;5058031;28;20085;-79
2022/09/28 03:41:18;;;;;;;3.75;2.30;;;7.40;99.90;;;;;;5085807;28;20071;-79
2022/09/28 03:43:43;;;;;;;3.42;2.05;;;7.50;99.90;;;;;;5073926;28;20087;-79
2022/09/28 03:46:09;;;;;;;4.38;2.67;;;7.50;99.90;;;;;;5086273;28;20443;-80
2022/09/28 03:48:35;;;;;;;4.38;2.42;;;7.60;99.90;;;;;;5083317;28;20044;-80
2022/09/28 03:51:04;;;;;;;3.20;1.92;;;7.60;99.90;;;;;;5077658;28;20036;-80
2022/09/28 03:53:31;;;;;;;6.05;2.70;;;7.70;99.90;;;;;;5078843;28;20054;-80
2022/09/28 03:56:05;;;;;;;4.72;2.60;;;7.70;99.90;;;;;;5068861;28;20118;-80
2022/09/28 03:58:31;;;;;;;5.90;2.90;;;7.70;99.90;;;;;;5070344;28;20036;-79
2022/09/28 04:01:06;;;;;;;4.32;2.45;;;7.70;99.90;;;;;;5079787;28;20069;-79
2022/09/28 04:03:31;;;;;;;3.65;2.40;;;7.80;99.90;;;;;;5073525;28;20051;-79
2022/09/28 04:05:57;;;;;;;4.93;2.88;;;7.90;99.90;;;;;;5081145;28;20036;-79
2022/09/28 04:08:23;;;;;;;5.13;2.53;;;7.80;99.90;;;;;;5077733;28;20041;-79
2022/09/28 04:10:49;;;;;;;4.88;2.60;;;7.80;99.90;;;;;;5064230;28;20054;-79
2022/09/28 04:13:15;;;;;;;6.13;3.30;;;7.80;99.90;;;;;;5074109;28;20555;-80
2022/09/28 04:15:41;;;;;;;4.85;3.08;;;7.80;99.90;;;;;;5075692;28;20036;-80
2022/09/28 04:18:10;;;;;;;5.00;2.92;;;7.80;99.90;;;;;;5090445;28;20097;-80
2022/09/28 04:20:38;;;;;;;5.45;3.00;;;7.90;99.90;;;;;;5077474;28;20040;-80
2022/09/28 04:23:08;;;;;;;5.45;2.90;;;7.90;99.90;;;;;;5084577;28;20048;-80
2022/09/28 04:25:33;;;;;;;5.53;2.80;;;7.90;99.90;;;;;;5079877;28;20036;-80
2022/09/28 04:30:46;;;;;;;6.80;3.05;;;7.90;99.90;;;;;;5083741;28;20039;-80
2022/09/28 04:33:11;;;;;;;4.13;2.47;;;7.90;99.90;;;;;;5080846;28;20048;-80
2022/09/28 04:35:37;;;;;;;4.93;3.13;;;7.90;99.90;;;;;;5062327;28;20127;-80
2022/09/28 04:38:03;;;;;;;4.38;2.42;;;8.00;99.90;;;;;;5073412;28;20041;-79
2022/09/28 04:40:28;;;;;;;5.93;2.83;;;8.00;99.90;;;;;;5041655;28;20066;-80
2022/09/28 04:42:57;;;;;;;4.72;2.58;;;8.00;99.90;;;;;;5071383;28;20559;-79
2022/09/28 04:45:27;;;;;;;4.78;2.70;;;8.00;99.90;;;;;;5078134;28;20075;-79
2022/09/28 04:47:53;;;;;;;4.03;2.70;;;8.00;99.90;;;;;;5089261;28;20042;-79
2022/09/28 04:50:20;;;;;;;4.15;2.40;;;8.00;99.90;;;;;;5081203;28;20357;-79
2022/09/28 04:52:46;;;;;;;3.97;2.60;;;8.20;99.90;;;;;;5078359;28;20035;-79
2022/09/28 04:55:13;;;;;;;4.13;2.55;;;8.20;99.90;;;;;;5075213;28;20421;-79
2022/09/28 04:57:39;;;;;;;5.40;2.33;;;8.10;99.90;;;;;;5072548;28;20035;-79
2022/09/28 05:00:05;;;;;;;4.30;2.80;;;8.10;99.90;;;;;;5090731;28;20031;-79
2022/09/28 05:02:32;;;;;;;4.65;2.55;;;8.20;99.90;;;;;;5057569;28;20032;-79
2022/09/28 05:04:58;;;;;;;4.57;2.33;;;8.00;99.90;;;;;;5076248;28;20036;-80
2022/09/28 05:07:26;;;;;;;3.65;2.00;;;8.40;99.90;;;;;;5083067;28;20090;-80
2022/09/28 05:09:54;;;;;;;4.10;2.58;;;;;;;;;;5059513;28;20039;-80
2022/09/28 05:12:20;;;;;;;5.80;3.25;;;8.00;99.90;;;;;;5088524;28;20045;-80
2022/09/28 05:14:46;;;;;;;4.55;2.28;;;8.00;99.90;;;;;;5081955;28;20039;-82
2022/09/28 05:17:11;;;;;;;3.80;2.40;;;8.00;99.90;;;;;;5068181;28;21217;-81
2022/09/28 05:19:37;;;;;;;3.63;2.25;;;8.00;99.90;;;;;;5067749;28;20508;-82
2022/09/28 05:22:04;;;;;;;3.90;2.40;;;8.00;99.90;;;;;;5082393;28;20059;-81
2022/09/28 05:24:30;;;;;;;5.22;2.47;;;7.90;99.90;;;;;;5077655;28;20071;-81
2022/09/28 05:26:56;;;;;;;3.63;2.20;;;7.80;99.90;;;;;;5070989;28;20098;-81
2022/09/28 05:29:22;;;;;;;4.60;2.63;;;7.80;99.90;;;;;;5070232;28;20036;-81
2022/09/28 05:31:48;;;;;;;4.28;2.28;;;7.70;99.90;;;;;;5072585;28;20040;-81
2022/09/28 05:34:16;;;;;;;3.42;1.95;;;7.60;99.90;;;;;;5055740;28;20032;-81
2022/09/28 05:36:44;;;;;;;6.78;2.47;;;7.40;99.90;;;;;;5071882;28;20048;-79
2022/09/28 05:39:10;;;;;;;3.20;2.38;;;7.30;99.90;;;;;;5088759;28;20551;-80
2022/09/28 05:41:35;;;;;;;3.20;2.25;;;7.30;99.90;;;;;;5057357;28;20052;-80
2022/09/28 05:44:01;;;;;;;3.22;2.03;;;7.20;99.90;;;;;;5074582;28;20486;-80
2022/09/28 05:46:28;;;;;;;3.80;1.85;;;7.20;99.90;;;;;;5065843;28;20042;-80
2022/09/28 05:48:54;;;;;;;3.67;1.90;;;7.10;99.90;;;;;;5075868;28;20450;-79
2022/09/28 05:51:20;;;;;;;3.30;2.00;;;7.10;99.90;;;;;;5073413;28;20123;-79
2022/09/28 05:53:46;;;;;;;2.78;1.63;;;7.80;99.90;;;;;;5080086;28;20046;-79
2022/09/28 05:56:12;;;;;;;3.35;2.00;;;7.10;99.90;;;;;;5077044;28;20444;-79
2022/09/28 05:58:38;;;;;;;2.83;1.60;;;7.20;99.90;;;;;;5071965;28;20040;-80
2022/09/28 06:01:03;;;;;;;3.40;2.22;;;7.20;99.90;;;;;;5072415;28;20497;-80
2022/09/28 06:03:29;;;;;;;4.78;2.50;;;7.30;99.90;;;;;;5072077;28;20044;-80
2022/09/28 06:05:55;;;;;;;3.83;2.42;;;7.40;99.90;;;;;;5052271;28;20140;-80
2022/09/28 06:08:20;;;;;;;5.65;2.53;;;7.50;99.90;;;;;;5083927;28;20498;-80
2022/09/28 06:10:46;;;;;;;5.40;2.65;;;7.50;99.90;;;;;;5059900;28;20117;-79
2022/09/28 06:13:12;;;;;;;5.13;3.28;;;7.50;99.90;;;;;;5072881;28;20051;-79
2022/09/28 06:15:40;;;;;;;5.75;3.20;;;7.60;99.90;;;;;;5069238;28;20132;-78
2022/09/28 06:18:09;;;;;;;5.55;3.22;;;7.70;99.90;;;;;;5053050;28;20474;-79
2022/09/28 06:20:39;;;;;;;6.97;3.83;;;7.70;99.90;;;;;;5069197;28;20075;-79
2022/09/28 06:23:06;;;;;;;6.05;2.92;;;7.70;99.90;;;;;;5084865;28;20040;-79
2022/09/28 06:25:33;;;;;;;5.50;3.28;;;7.70;99.90;;;;;;5073918;28;20096;-79
2022/09/28 06:28:01;;;;;;;4.82;2.53;;;7.70;99.90;;;;;;5084374;28;20032;-81
2022/09/28 06:30:30;;;;;;;5.70;2.70;;;7.70;99.90;;;;;;5085153;28;20466;-81
2022/09/28 06:32:58;;;;;;;4.35;2.38;;;7.70;99.90;;;;;;5076642;28;20039;-81
2022/09/28 06:35:26;;;;;;;4.65;2.83;;;7.60;99.90;;;;;;5083718;28;20036;-81
2022/09/28 06:37:52;;;;;;;4.18;2.38;;;7.70;99.90;;;;;;5071415;28;20037;-81
2022/09/28 06:40:20;;;;;;;3.53;2.03;;;7.60;99.90;;;;;;5070216;28;20116;-81
2022/09/28 06:42:59;;;;;;;4.65;2.40;;;7.70;99.90;;;;;;5065795;28;20060;-81
2022/09/28 06:45:26;;;;;;;6.32;3.05;;;8.10;99.90;;;;;;5071643;28;20048;-81
2022/09/28 06:48:00;;;;;;;8.15;3.45;;;;;;;;;;5047076;28;20078;-81
2022/09/28 06:50:29;;;;;;;5.45;3.20;;;8.90;99.90;;;;;;5082220;28;20036;-81
2022/09/28 06:52:56;;;;;;;6.13;3.67;;;9.60;99.90;;;;;;5082697;28;20454;-81
2022/09/28 06:55:25;;;;;;;5.78;2.75;;;10.80;99.90;;;;;;5064535;28;20047;-81
2022/09/28 06:58:02;;;;;;;4.82;3.00;;;12.40;99.90;;;;;;5079444;28;20477;-81
2022/09/28 07:00:31;;;;;;;5.50;3.22;;;14.10;99.90;;;;;;5077742;28;20370;-81
2022/09/28 07:02:57;;;;;;;6.22;3.33;;;15.60;99.90;;;;;;5067156;28;20036;-81
2022/09/28 07:05:26;;;;;;;5.45;2.83;;;16.70;99.90;;;;;;5061905;28;20085;-81
2022/09/28 07:07:54;;;;;;;6.93;3.30;;;17.50;99.90;;;;;;5062090;28;20029;-81
2022/09/28 07:10:22;;;;;;;5.18;2.70;;;17.90;99.90;;;;;;5082530;28;20093;-81
2022/09/28 07:12:49;;;;;;;5.57;2.88;;;18.40;99.90;;;;;;5072358;28;20067;-81
2022/09/28 07:15:15;;;;;;;3.90;2.47;;;19.10;99.90;;;;;;5080391;28;20039;-81
2022/09/28 07:17:40;;;;;;;3.83;2.10;;;19.70;99.90;;;;;;5064621;28;20482;-79
2022/09/28 07:20:06;;;;;;;3.78;2.28;;;19.30;98.50;;;;;;5062125;28;20032;-80
2022/09/28 07:22:35;;;;;;;3.17;2.00;;;20.20;99.70;;;;;;5065292;28;20036;-80
2022/09/28 07:25:00;;;;;;;2.65;1.90;;;20.70;99.90;;;;;;5064084;28;20559;-79
2022/09/28 07:27:26;;;;;;;3.13;1.90;;;20.60;96.30;;;;;;5086435;28;20086;-79
2022/09/28 07:29:52;;;;;;;3.15;1.88;;;20.80;97.80;;;;;;5081286;28;20032;-79
2022/09/28 07:32:21;;;;;;;3.33;2.00;;;21.30;96.90;;;;;;5083601;28;20040;-79
2022/09/28 07:34:47;;;;;;;3.45;2.00;;;21.50;95.30;;;;;;5082487;28;20047;-79
2022/09/28 07:37:14;;;;;;;2.67;1.38;;;21.40;95.80;;;;;;5067400;28;20044;-79
2022/09/28 07:42:29;;;;;;;3.28;1.70;;;21.80;96.00;;;;;;5076771;28;20398;-80
2022/09/28 07:44:58;;;;;;;3.22;1.85;;;22.60;93.50;;;;;;5085545;28;20071;-79
2022/09/28 07:47:28;;;;;;;2.30;1.25;;;22.90;94.40;;;;;;5083329;28;20482;-80
2022/09/28 07:49:55;;;;;;;4.30;1.42;;;23.70;93.20;;;;;;5046260;28;20470;-80
2022/09/28 07:52:25;;;;;;;5.47;2.30;;;24.20;92.90;;;;;;5052340;28;20036;-80
2022/09/28 07:54:54;;;;;;;3.30;1.60;;;25.00;91.40;;;;;;5065489;28;20119;-80
2022/09/28 07:57:22;;;;;;;2.97;1.60;;;25.40;90.30;;;;;;5078533;22;20044;-79
2022/09/28 07:59:52;;;;;;;2.85;1.65;;;25.70;90.20;;;;;;5064462;28;20043;-80
2022/09/28 08:02:21;;;;;;;2.33;1.45;;;26.00;88.90;;;;;;5043181;28;20117;-80
2022/09/28 08:04:48;;;;;;;2.00;1.38;;;25.90;87.20;;;;;;5044595;28;20111;-80
2022/09/28 08:07:14;;;;;;;2.40;1.25;;;25.80;86.60;;;;;;5062521;28;20036;-81
2022/09/28 08:09:41;;;;;;;2.42;1.60;;;25.60;87.70;;;;;;5062874;28;20099;-81
2022/09/28 08:12:07;;;;;;;2.08;1.05;;;26.00;85.60;;;;;;5046270;28;20037;-82
2022/09/28 08:14:33;;;;;;;2.75;1.42;;;26.10;85.70;;;;;;5044822;28;20055;-81
2022/09/28 08:17:00;;;;;;;2.63;0.98;;;26.50;85.40;;;;;;5061067;28;20041;-82
2022/09/28 08:21:43;;;;;;;1.13;0.80;;;26.60;86.20;;;;;;5057182;28;20330;-82
2022/09/28 08:22:12;;;;;;;1.70;1.20;;;26.80;84.60;;;;;;5058638;28;20059;-81
2022/09/28 08:24:38;;;;;;;3.15;0.90;;;;;;;;;;5060071;28;20469;-80
2022/09/28 08:27:04;;;;;;;1.98;1.20;;;26.80;83.60;;;;;;5062741;28;20064;-80
2022/09/28 08:29:30;;;;;;;2.92;1.27;;;27.00;83.20;;;;;;5038421;28;20472;-79
2022/09/28 08:31:59;;;;;;;1.23;0.82;;;27.30;80.60;;;;;;5054468;28;20282;-79
2022/09/28 08:34:26;;;;;;;1.55;0.98;;;27.50;82.20;;;;;;5051776;28;20076;-79
2022/09/28 08:36:52;;;;;;;1.23;1.00;;;27.90;81.80;;;;;;5071368;28;20372;-79
2022/09/28 08:39:18;;;;;;;1.67;1.00;;;28.00;79.30;;;;;;5051057;28;20418;-80
2022/09/28 08:41:53;;;;;;;1.17;1.00;;;28.50;80.30;;;;;;5035431;28;20037;-80
2022/09/28 08:44:23;;;;;;;1.47;1.00;;;28.60;80.10;;;;;;5037157;28;20044;-80
2022/09/28 08:48:42;;;;;;;1.35;0.90;;;28.50;78.30;;;;;;5053177;28;20279;-80
2022/09/28 08:49:56;;;;;;;0.68;0.60;;;28.80;77.10;;;;;;5042801;28;20513;-80
2022/09/28 08:52:28;;;;;;;1.45;0.95;;;28.60;76.30;;;;;;5031925;28;20491;-80
2022/09/28 08:55:12;;;;;;;1.05;0.85;;;28.40;77.30;;;;;;5041990;28;20037;-80
2022/09/28 08:58:20;;;;;;;1.10;0.90;;;28.40;77.30;;;;;;5052208;28;20503;-80
2022/09/28 09:00:49;;;;;;;1.17;0.77;;;27.90;73.90;;;;;;5051580;28;20183;-80
2022/09/28 09:03:32;;;;;;;1.27;0.80;;;27.90;76.40;;;;;;5034838;28;20430;-80
2022/09/28 09:06:28;;;;;;;0.57;0.45;;;27.90;78.90;;;;;;5050496;28;20120;-80
2022/09/28 09:09:22;;;;;;;0.57;0.52;;;28.00;77.20;;;;;;5037463;28;20050;-80
2022/09/28 09:12:12;;;;;;;0.63;0.50;;;28.30;77.20;;;;;;5042820;28;20403;-80
2022/09/28 09:15:09;;;;;;;1.35;1.00;;;28.10;73.70;;;;;;5027577;28;20041;-80
2022/09/28 09:18:02;;;;;;;1.13;0.55;;;28.00;78.70;;;;;;5043653;28;20038;-79
2022/09/28 09:20:49;;;;;;;1.27;0.75;;;28.30;77.70;;;;;;5044627;28;20390;-79
2022/09/28 09:23:30;;;;;;;0.30;0.30;;;28.60;75.30;;;;;;5049190;28;20368;-80
2022/09/28 09:26:17;;;;;;;3.83;1.20;;;28.80;73.20;;;;;;5036250;28;20059;-80
2022/09/28 09:29:13;;;;;;;0.52;0.45;;;28.00;75.60;;;;;;5039554;28;20045;-79
2022/09/28 09:32:09;;;;;;;0.32;0.28;;;28.20;75.30;;;;;;5053770;28;20197;-79
2022/09/28 09:35:04;;;;;;;0.47;0.47;;;28.50;77.70;;;;;;5055040;28;20049;-79
2022/09/28 09:37:50;;;;;;;2.08;0.63;;;28.70;70.90;;;;;;5044710;28;20074;-79
2022/09/28 09:40:41;;;;;;;0.80;0.47;;;27.70;73.20;;;;;;5048409;28;20116;-79
2022/09/28 09:43:49;;;;;;;0.17;0.17;;;26.70;76.90;;;;;;5035899;28;20557;-79
2022/09/28 09:46:29;;;;;;;0.10;0.10;;;27.90;73.60;;;;;;5049664;28;20030;-80
2022/09/28 09:49:03;;;;;;;0.30;0.20;;;28.20;74.80;;;;;;5044040;28;20029;-79
2022/09/28 09:52:08;;;;;;;2.30;0.47;;;28.50;72.10;;;;;;5045990;28;20044;-79
2022/09/28 09:54:48;;;;;;;0.55;0.20;;;28.20;71.40;;;;;;5031901;28;20120;-79
2022/09/28 09:57:19;;;;;;;0.43;0.32;;;27.30;68.50;;;;;;5049639;28;20081;-79
2022/09/28 09:59:46;;;;;;;0.38;0.38;;;25.70;73.20;;;;;;5030720;28;20095;-79
2022/09/28 10:02:25;;;;;;;0.30;0.30;;;24.30;75.30;;;;;;5042479;28;20041;-79
2022/09/28 10:05:06;;;;;;;0.20;0.20;;;23.20;79.20;;;;;;5030698;28;20035;-79
2022/09/28 10:08:02;;;;;;;0.45;0.13;;;22.40;77.60;;;;;;5037163;28;20084;-79
2022/09/28 10:10:34;;;;;;;0.20;0.20;;;22.40;81.70;;;;;;5047522;28;20136;-80
2022/09/28 10:13:00;;;;;;;0.40;0.30;;;23.40;77.80;;;;;;5049619;28;20053;-80
2022/09/28 10:15:28;;;;;;;0.68;0.60;;;24.20;76.70;;;;;;5039382;28;20033;-80
2022/09/28 10:17:57;;;;;;;0.13;0.13;;;24.40;76.50;;;;;;5033373;28;20033;-80
2022/09/28 10:20:24;;;;;;;0.15;0.10;;;25.20;76.00;;;;;;5048419;28;20048;-81
2022/09/28 10:22:51;;;;;;;0.90;0.20;;;25.20;76.30;;;;;;5048036;28;20502;-81
2022/09/28 10:25:17;;;;;;;1.75;0.35;;;24.30;74.60;;;;;;5050271;28;20068;-81
2022/09/28 10:27:51;;;;;;;0.32;0.30;;;23.50;78.00;;;;;;5049660;28;20048;-81
2022/09/28 10:30:23;;;;;;;0.68;0.35;;;22.30;77.20;;;;;;5042032;28;20483;-81
2022/09/28 10:32:51;;;;;;;0.80;0.35;;;21.80;81.40;;;;;;5056112;28;20068;-81
2022/09/28 10:35:27;;;;;;;0.20;0.20;;;21.40;79.40;;;;;;5041366;28;20633;-81
2022/09/28 10:38:16;;;;;;;1.13;0.20;;;21.20;80.60;;;;;;5054018;28;20360;-81
2022/09/28 10:40:45;;;;;;;0.75;0.52;;;22.10;85.80;;;;;;5039886;28;20562;-81
2022/09/28 10:43:23;;;;;;;0.10;0.10;;;23.40;79.90;;;;;;5033580;28;20045;-81
2022/09/28 10:46:18;;;;;;;0.30;0.10;;;23.90;76.50;;;;;;5050214;28;20399;-81
2022/09/28 10:48:57;;;;;;;0.13;0.13;;;23.80;74.10;;;;;;5037433;28;20041;-81
2022/09/28 10:51:39;;;;;;;0.15;0.15;;;23.20;77.30;;;;;;5026954;28;20292;-82
2022/09/28 10:54:08;;;;;;;0.70;0.20;;;22.60;80.90;;;;;;5043273;28;20049;-81
2022/09/28 10:56:36;;;;;;;0.52;0.20;;;22.20;77.60;;;;;;5034338;28;20474;-81
2022/09/28 10:59:22;;;;;;;0.13;0.13;;;21.70;77.90;;;;;;5059099;28;20043;-81
2022/09/28 11:01:59;;;;;;;1.02;0.20;;;21.20;81.00;;;;;;5055670;28;20036;-81
2022/09/28 11:04:33;;;;;;;0.85;0.20;;;20.80;83.00;;;;;;5057674;28;20079;-81
2022/09/28 11:07:00;;;;;;;0.28;0.28;;;20.40;82.50;;;;;;5055610;28;20064;-81
2022/09/28 11:09:33;;;;;;;0.20;0.20;;;20.10;83.90;;;;;;5056367;28;20135;-81
2022/09/28 11:12:02;;;;;;;0.30;0.22;;;19.50;84.60;;;;;;5056218;28;20032;-81
2022/09/28 11:14:39;;;;;;;1.65;0.20;;;19.30;88.40;;;;;;5056843;28;20437;-81
2022/09/28 11:17:26;;;;;;;0.60;0.30;;;18.90;90.20;;;;;;5055983;28;20152;-81
2022/09/28 11:20:00;;;;;;;0.10;0.10;;;18.60;90.00;;;;;;5036225;28;20126;-81
2022/09/28 11:22:47;;;;;;;0.10;0.10;;;18.40;90.90;;;;;;5037363;28;20120;-81
2022/09/28 11:25:30;;;;;;;0.10;0.10;;;18.20;91.20;;;;;;5025850;28;20062;-81
2022/09/28 11:27:58;;;;;;;3.95;0.80;;;18.00;91.00;;;;;;5053358;28;20069;-80
2022/09/28 11:30:44;;;;;;;0.20;0.20;;;17.80;92.10;;;;;;5051024;28;20047;-80
2022/09/28 11:33:24;;;;;;;0.40;0.22;;;17.70;93.60;;;;;;5039543;28;20143;-80
2022/09/28 11:36:11;;;;;;;0.20;0.20;;;17.50;93.80;;;;;;5033842;28;20048;-79
2022/09/28 11:39:02;;;;;;;0.32;0.20;;;17.30;95.10;;;;;;5073007;28;20119;-79
2022/09/28 11:41:37;;;;;;;0.40;0.22;;;17.20;95.80;;;;;;5066752;28;20037;-79
2022/09/28 11:44:47;;;;;;;0.10;0.10;;;16.90;95.40;;;;;;5041717;28;20375;-81
2022/09/28 11:47:16;;;;;;;0.10;0.10;;;16.60;98.30;;;;;;5055632;28;20482;-81
2022/09/28 11:50:02;;;;;;;1.08;0.20;;;16.30;98.10;;;;;;5054532;28;20430;-81
2022/09/28 11:52:56;;;;;;;0.20;0.20;;;16.00;99.20;;;;;;5056251;28;20092;-81
2022/09/28 11:55:40;;;;;;;0.20;0.20;;;15.90;99.90;;;;;;5093524;28;20036;-81
2022/09/28 11:58:25;;;;;;;0.10;0.10;;;16.30;99.90;;;;;;5053245;28;20058;-81
2022/09/28 12:00:56;;;;;;;0.10;0.10;;;16.70;99.90;;;;;;5072658;28;20120;-81
2022/09/28 12:03:28;;;;;;;0.10;0.10;;;17.00;99.90;;;;;;5065491;28;20070;-81
2022/09/28 12:06:05;;;;;;;0.10;0.10;;;16.90;99.90;;;;;;5035443;28;20037;-81
2022/09/28 12:08:36;;;;;;;0.52;0.28;;;16.70;99.90;;;;;;5039398;28;20115;-81
2022/09/28 12:11:15;;;;;;;0.20;0.13;;;16.60;99.90;;;;;;5037664;28;20070;-81
2022/09/28 12:13:46;;;;;;;0.15;0.15;;;16.40;99.90;;;;;;5055980;28;20083;-81
2022/09/28 12:16:30;;;;;;;0.10;0.10;;;16.40;99.90;;;;;;5056929;28;20044;-80
2022/09/28 12:19:01;;;;;;;0.10;0.10;;;16.30;99.90;;;;;;5040162;28;20032;-79
2022/09/28 12:21:54;;;;;;;0.10;0.10;;;16.10;99.90;;;;;;5056062;28;20066;-79
2022/09/28 12:24:41;;;;;;;0.13;0.13;;;16.10;99.90;;;;;;5038248;28;20048;-79
2022/09/28 12:27:13;;;;;;;0.55;0.40;;;16.20;99.90;;;;;;5026213;28;20045;-79
2022/09/28 12:29:53;;;;;;;0.10;0.10;;;16.80;99.90;;;;;;5090926;28;20460;-79
2022/09/28 12:32:50;;;;;;;0.13;0.13;;;17.10;99.90;;;;;;5056662;28;20494;-79
2022/09/28 12:35:53;;;;;;;0.20;0.20;;;17.30;99.90;;;;;;5056969;28;20041;-79
2022/09/28 12:38:46;;;;;;;0.35;0.20;;;17.40;99.90;;;;;;5052755;28;20510;-79
2022/09/28 12:41:15;;;;;;;1.55;0.20;;;17.80;97.30;;;;;;5052696;28;20510;-79
2022/09/28 12:44:20;;;;;;;0.17;0.10;;;18.30;97.20;;;;;;5051642;28;20055;-80
2022/09/28 12:46:52;;;;;;;0.10;0.10;;;19.20;97.60;;;;;;5017477;28;20066;-80
2022/09/28 12:49:30;;;;;;;0.10;0.10;;;19.50;93.40;;;;;;5056220;28;20090;-80
2022/09/28 12:52:00;;;;;;;0.00;0.00;;;19.90;94.00;;;;;;5056219;28;20044;-80
2022/09/28 12:54:40;;;;;;;0.88;0.20;;;20.40;96.40;;;;;;5054064;28;20380;-80
2022/09/28 12:57:43;;;;;;;0.10;0.10;;;20.70;94.50;;;;;;5056141;28;20056;-80
2022/09/28 13:00:21;;;;;;;0.13;0.13;;;20.60;91.10;;;;;;5036777;28;20123;-80
2022/09/28 13:03:06;;;;;;;0.15;0.13;;;20.90;90.80;;;;;;5086862;28;20052;-80
2022/09/28 13:06:04;;;;;;;0.20;0.20;;;20.90;89.50;;;;;;5091509;28;20072;-80
2022/09/28 13:09:04;;;;;;;0.10;0.10;;;21.10;85.70;;;;;;5042137;28;20032;-80
2022/09/28 13:11:41;;;;;;;1.27;0.20;;;21.20;87.20;;;;;;5062779;28;20319;-80
2022/09/28 13:14:31;;;;;;;0.10;0.10;;;21.20;90.50;;;;;;5080552;28;20441;-80
2022/09/28 13:17:08;;;;;;;6.30;0.55;;;21.40;85.90;;;;;;5063931;28;20044;-80
2022/09/28 13:19:47;;;;;;;0.10;0.10;;;21.30;85.90;;;;;;5056766;28;20534;-80
2022/09/28 13:22:48;;;;;;;0.10;0.10;;;21.30;87.00;;;;;;5038798;28;20045;-80
2022/09/28 13:25:20;;;;;;;0.10;0.10;;;21.40;85.40;;;;;;5056737;28;20048;-82
2022/09/28 13:27:55;;;;;;;1.23;0.30;;;21.40;86.00;;;;;;5050439;28;20048;-83
2022/09/28 13:30:21;;;;;;;0.10;0.10;;;21.60;89.40;;;;;;5064600;28;20044;-83
2022/09/28 13:32:48;;;;;;;0.35;0.13;;;21.80;86.70;;;;;;5062161;28;20040;-82
2022/09/28 13:35:19;;;;;;;0.35;0.20;;;21.30;87.90;;;;;;5056101;28;20101;-82